Latest Weather Observations for Redesdale

IDV60801

Issued at 6:22 am EST Monday 28 September 2020 (issued every 10 minutes, with the page automatically refreshed every 10 minutes)

About weather observations | Map of weather stations | Latest weather observations for VIC | Other Formats
Station Details ID: 088051 Name: REDESDALE Lat: -37.02 Lon: 144.52 Height: 290.0 m
Data from the previous 72 hours. | See also: Recent months at Redesdale
Date/Time
EST
Temp
°C
App
Temp
°C
Dew
Point
°C
Rel
Hum
%
Delta-T
°C
Wind Press
QNH
hPa
Press
MSL
hPa
Rain since
9am
mm
Dir  Spd
km/h
Gust
km/h
Spd
kts
Gust
kts
28/06:00am 0.0 -2.8 -0.6 96 0.2 SSW 4 6 2 3 - - -
28/05:30am 0.2 -2.2 -0.5 95 0.3 SSW 2 6 1 3 - - -
28/05:00am 0.8 -2.3 0.1 95 0.3 SSW 6 7 3 4 - - -
28/04:30am 1.0 -2.7 0.1 94 0.3 SSW 9 11 5 6 - - -
28/04:00am 1.5 -2.5 0.5 93 0.4 S 11 13 6 7 - - -
28/03:30am 1.3 -2.7 0.4 94 0.3 S 11 15 6 8 - - -
28/03:00am 1.4 -2.2 0.5 94 0.3 S 9 11 5 6 - - -
28/02:30am 1.1 -2.6 0.1 93 0.4 SSW 9 9 5 5 - - -
28/02:00am 2.0 -1.5 1.1 94 0.3 S 9 11 5 6 - - -
28/01:30am 1.6 -1.6 0.7 94 0.3 S 7 9 4 5 - - -
28/01:00am 1.6 -1.1 0.4 92 0.5 SSW 4 6 2 3 - - -
28/12:30am 2.3 -0.7 1.0 91 0.5 SSW 6 9 3 5 - - -
28/12:00am 2.8 -1.0 1.5 91 0.5 SSW 11 13 6 7 - - -
 
Date/Time
EST
Temp
°C
App
Temp
°C
Dew
Point
°C
Rel
Hum
%
Delta-T
°C
Wind Press
QNH
hPa
Press
MSL
hPa
Rain since
9am
mm
Dir  Spd
km/h
Gust
km/h
Spd
kts
Gust
kts
27/11:30pm 2.2 -1.0 0.7 90 0.6 S 7 9 4 5 - - -
27/11:00pm 3.1 0.2 1.5 89 0.6 SSW 6 7 3 4 - - -
27/10:00pm 3.8 0.0 1.5 85 0.9 SSW 11 13 6 7 - - -
27/09:30pm 4.5 0.3 1.9 83 1.1 S 13 17 7 9 - - -
27/09:00pm 4.7 - 1.9 82 1.1 - - - - - - - -
27/08:30pm 5.4 1.3 2.1 79 1.4 S 13 17 7 9 - - 0.2
27/08:00pm 5.3 1.5 2.0 79 1.3 S 11 15 6 8 - - 0.2
27/07:30pm 6.0 2.3 2.3 77 1.5 SSE 11 15 6 8 - - 0.2
27/07:00pm 6.7 3.0 2.4 74 1.8 SSE 11 17 6 9 - - 0.2
27/06:30pm 7.5 4.2 2.6 71 2.1 SSE 9 13 5 7 - - 0.2
27/06:00pm 9.4 6.1 2.7 63 2.9 SSE 9 15 5 8 - - 0.2
27/05:30pm 11.1 7.4 2.2 54 3.9 SSE 11 15 6 8 - - 0.2
27/05:00pm 12.0 7.8 1.9 50 4.4 S 13 17 7 9 - - 0.2
27/04:30pm 12.9 9.6 2.2 48 4.7 S 9 15 5 8 - - 0.2
27/04:00pm 13.1 9.6 1.5 45 5.1 SSE 9 15 5 8 - - 0.2
27/03:30pm 11.9 7.1 0.4 45 4.8 SSE 15 19 8 10 - - 0.2
27/03:00pm 13.8 10.5 2.7 47 5.0 S 9 15 5 8 - - 0.2
27/02:30pm 13.5 10.3 3.0 49 4.7 S 9 17 5 9 - - 0.2
27/02:00pm 13.9 10.8 3.4 49 4.8 S 9 17 5 9 - - 0.2
27/01:30pm 13.9 10.5 4.2 52 4.5 SSW 11 28 6 15 - - 0.2
27/01:00pm 13.5 9.7 4.1 53 4.4 S 13 24 7 13 - - 0.2
27/12:30pm 12.9 9.0 3.3 52 4.3 SSW 13 20 7 11 - - 0.0
27/12:00pm 12.4 8.4 2.8 52 4.3 S 13 19 7 10 - - 0.0
27/11:30am 11.4 8.6 2.9 56 3.8 SW 7 11 4 6 - - 0.0
27/11:00am 11.4 7.6 3.9 60 3.4 S 13 24 7 13 - - 0.0
27/10:30am 11.4 6.1 5.1 65 2.9 S 22 30 12 16 - - 0.0
27/10:00am 11.5 7.5 2.8 55 3.8 SSW 13 17 7 9 - - 0.0
27/09:30am 9.2 4.7 2.1 61 3.0 SSW 15 24 8 13 - - 0.0
27/09:00am 9.7 6.7 4.3 69 2.4 SSW 9 13 5 7 - - 0.4
27/08:30am 8.2 4.2 4.8 79 1.5 S 15 20 8 11 - - -
27/08:00am 8.9 6.2 5.6 80 1.5 S 9 13 5 7 - - -
27/07:30am 7.8 5.8 6.1 89 0.8 SSW 6 11 3 6 - - -
27/07:00am 6.2 4.1 5.8 97 0.2 SW 6 6 3 3 - - -
27/06:30am 4.2 2.1 3.8 97 0.2 SW 4 6 2 3 - - -
27/06:00am 4.5 2.1 4.2 98 0.1 SSW 6 9 3 5 - - -
27/05:30am 5.1 2.8 4.8 98 0.1 SW 6 7 3 4 - - -
27/05:00am 5.2 3.3 4.8 97 0.2 SW 4 7 2 4 - - -
27/04:30am 6.0 3.8 5.4 96 0.3 SW 6 7 3 4 - - -
27/04:00am 7.0 4.9 5.9 93 0.5 SW 6 9 3 5 - - -
27/03:30am 6.6 3.9 5.4 92 0.5 WSW 9 17 5 9 - - -
27/03:00am 6.5 3.7 5.0 90 0.7 WSW 9 13 5 7 - - 0.0
27/02:30am 6.6 3.7 4.9 89 0.8 WSW 9 17 5 9 - - -
27/02:00am 6.8 3.9 4.8 87 0.9 WSW 9 19 5 10 - - -
27/01:30am 7.3 4.1 5.1 86 1.0 SW 11 19 6 10 - - -
27/01:00am 7.3 4.1 5.0 85 1.0 WSW 11 22 6 12 - - -
27/12:30am 6.8 3.9 4.5 85 1.0 WSW 9 17 5 9 - - -
27/12:00am 7.4 3.4 4.9 84 1.1 WSW 15 30 8 16 - - -
 
Date/Time
EST
Temp
°C
App
Temp
°C
Dew
Point
°C
Rel
Hum
%
Delta-T
°C
Wind Press
QNH
hPa
Press
MSL
hPa
Rain since
9am
mm
Dir  Spd
km/h
Gust
km/h
Spd
kts
Gust
kts
26/11:30pm 7.5 3.5 5.0 84 1.1 WSW 15 28 8 15 - - -
26/11:00pm 7.8 3.1 5.1 83 1.2 WSW 19 30 10 16 - - -
26/10:30pm 7.5 3.1 5.0 84 1.1 WSW 17 30 9 16 - - -
26/10:00pm 7.8 4.2 5.1 83 1.2 WSW 13 24 7 13 - - -
26/09:30pm 7.5 4.3 5.1 85 1.1 WSW 11 20 6 11 - - -
26/09:00pm 7.3 4.1 5.0 85 1.0 WSW 11 22 6 12 - - 0.2
26/08:30pm 8.3 5.1 5.1 80 1.5 WSW 11 20 6 11 - - -
26/08:00pm 8.1 4.9 5.2 82 1.3 WSW 11 22 6 12 - - -
26/07:30pm 7.5 5.0 5.0 84 1.1 WSW 7 15 4 8 - - -
26/07:00pm 7.7 4.8 4.8 82 1.3 WSW 9 15 5 8 - - -
26/06:30pm 7.6 4.3 4.4 80 1.4 WSW 11 17 6 9 - - -
26/06:00pm 8.5 4.5 4.7 77 1.7 WSW 15 26 8 14 - - -
26/05:30pm 9.3 5.0 5.3 76 1.8 WSW 17 28 9 15 - - -
26/05:00pm 10.9 6.9 5.0 67 2.7 W 15 32 8 17 - - -
26/04:30pm 10.7 5.7 3.5 61 3.2 WSW 19 33 10 18 - - -
26/04:00pm 11.6 6.0 3.4 57 3.7 WSW 22 37 12 20 - - -
26/03:30pm 11.6 7.4 5.5 66 2.9 WSW 17 30 9 16 - - -
26/03:00pm 11.9 7.3 3.9 58 3.6 SW 17 32 9 17 - - 0.2
26/02:30pm 10.0 6.3 6.2 77 1.8 WSW 15 26 8 14 - - -
26/02:00pm 11.4 7.7 4.6 63 3.1 SW 13 22 7 12 - - -
26/01:30pm 12.2 8.4 7.5 73 2.3 SW 17 28 9 15 - - -
26/01:00pm 12.4 9.0 6.0 65 3.1 WSW 13 22 7 12 - - -
26/12:30pm 12.9 8.7 3.6 53 4.2 WSW 15 22 8 12 - - -
26/12:00pm 12.0 7.3 5.0 62 3.3 SW 19 30 10 16 - - -
26/11:30am 11.7 7.3 4.7 62 3.2 SW 17 30 9 16 - - -
26/10:30am 10.8 5.4 2.6 57 3.6 SW 20 30 11 16 - - -
26/10:00am 9.3 3.5 2.4 62 3.0 SW 22 32 12 17 - - -
26/09:30am 9.1 4.5 3.7 69 2.4 WSW 17 30 9 16 - - 0.0
26/09:00am 8.7 1.9 3.3 69 2.4 SW 28 41 15 22 - - 4.2
26/08:30am 7.4 2.1 3.1 74 1.8 SW 20 32 11 17 - - 4.2
26/08:00am 7.5 3.7 3.7 77 1.7 SW 13 26 7 14 - - 4.2
26/07:30am 6.8 2.5 3.4 79 1.5 SW 15 24 8 13 - - 4.2
26/07:00am 6.0 1.3 3.2 82 1.2 SW 17 30 9 16 - - 4.2
26/06:30am 5.5 0.9 3.8 89 0.7 SW 17 26 9 14 - - 4.2
26/06:00am 5.4 2.0 4.2 92 0.5 WSW 11 20 6 11 - - 4.2
26/05:30am 5.4 1.7 4.7 95 0.3 SW 13 26 7 14 - - 4.2
26/05:00am 5.2 1.9 4.6 96 0.3 WSW 11 24 6 13 - - 4.2
26/04:30am 5.0 1.3 4.4 96 0.3 WSW 13 19 7 10 - - 4.0
26/04:00am 4.6 1.1 3.7 94 0.4 WSW 11 19 6 10 - - 4.0
26/03:30am 4.5 1.0 3.5 93 0.4 W 11 20 6 11 - - 4.0
26/03:00am 4.4 1.6 3.2 92 0.5 W 7 15 4 8 - - 4.0
26/02:30am 3.5 0.8 2.5 93 0.4 W 6 17 3 9 - - 4.0
26/02:00am 2.8 0.3 1.8 93 0.4 W 4 11 2 6 - - 4.0
26/01:30am 2.4 -0.5 1.2 92 0.5 WSW 6 9 3 5 - - 4.0
26/01:00am 2.7 -0.4 1.5 92 0.5 WSW 7 17 4 9 - - 4.0
26/12:30am 2.5 -0.5 1.8 95 0.3 WSW 7 15 4 8 - - 4.0
26/12:00am 1.9 -0.7 1.2 95 0.3 SW 4 6 2 3 - - 4.0
 
Date/Time
EST
Temp
°C
App
Temp
°C
Dew
Point
°C
Rel
Hum
%
Delta-T
°C
Wind Press
QNH
hPa
Press
MSL
hPa
Rain since
9am
mm
Dir  Spd
km/h
Gust
km/h
Spd
kts
Gust
kts
25/11:30pm 1.2 -1.5 0.5 95 0.3 S 4 6 2 3 - - 4.0
25/11:00pm 1.3 -0.6 0.3 93 0.4 CALM 0 0 0 0 - - 4.0
25/10:30pm 1.6 -1.1 0.4 92 0.5 SW 4 6 2 3 - - 4.0
25/10:00pm 3.1 0.6 1.6 90 0.6 WSW 4 7 2 4 - - 4.0
25/09:30pm 3.4 0.5 1.6 88 0.7 WSW 6 9 3 5 - - 4.0
25/09:00pm 3.0 0.1 1.2 88 0.7 W 6 9 3 5 - - 4.0
25/08:30pm 3.6 0.6 1.8 88 0.7 WSW 7 11 4 6 - - 4.0
25/08:00pm 3.8 1.0 1.8 87 0.8 WSW 6 7 3 4 - - 4.0
25/07:30pm 4.3 1.5 2.3 87 0.8 WSW 6 9 3 5 - - 4.0
25/07:00pm 4.7 2.0 2.6 86 0.9 WSW 6 9 3 5 - - 4.0
25/06:30pm 5.6 2.4 2.8 82 1.2 WSW 9 15 5 8 - - 4.0
25/06:00pm 6.5 3.3 2.8 77 1.6 WSW 9 20 5 11 - - 4.0
25/05:30pm 7.4 4.0 4.0 79 1.5 SW 11 17 6 9 - - 4.0
25/05:00pm 6.8 1.2 3.2 78 1.5 SW 22 35 12 19 - - 4.0
25/04:30pm 7.0 1.8 3.8 80 1.4 SW 20 33 11 18 - - 4.0
25/04:00pm 6.2 1.7 4.2 87 0.9 SW 17 32 9 17 - - 4.0
25/03:30pm 4.8 -1.3 3.0 88 0.8 SW 24 37 13 20 - - 3.8
25/03:00pm 6.6 2.4 3.6 81 1.3 WSW 15 28 8 15 - - 3.8
25/02:30pm 7.6 2.8 4.9 83 1.2 WSW 19 35 10 19 - - 3.8
25/02:00pm 8.0 5.9 6.5 90 0.7 WNW 7 15 4 8 - - 3.8
25/01:30pm 4.7 2.3 4.1 96 0.3 WSW 6 11 3 6 - - 3.8
25/01:00pm 4.7 0.9 3.7 93 0.4 WSW 13 22 7 12 - - 1.8
25/12:30pm 8.4 5.2 5.0 79 1.5 SSW 11 19 6 10 - - 0.0
25/12:00pm 8.9 6.3 4.1 72 2.1 WNW 7 13 4 7 - - 0.0
25/11:30am 8.4 5.0 4.2 75 1.9 W 11 19 6 10 - - 0.0
25/11:00am 8.7 5.7 4.1 73 2.0 WNW 9 17 5 9 - - 0.0
25/10:30am 9.5 6.8 5.7 77 1.8 W 9 19 5 10 - - 0.0
25/10:00am 7.9 4.7 5.0 82 1.3 WSW 11 19 6 10 - - 0.0
25/09:30am 6.9 2.5 4.6 85 1.0 SW 17 26 9 14 - - 0.0
25/09:00am 6.9 3.7 5.1 88 0.8 W 11 26 6 14 - - 17.4
25/08:30am 6.6 4.3 5.9 95 0.3 WNW 7 15 4 8 - - 17.4
25/08:00am 6.4 3.5 6.3 99 0.0 NW 11 17 6 9 - - 17.4
25/07:30am 5.8 3.5 5.7 99 0.0 NW 7 11 4 6 - - 17.4
25/07:00am 5.4 2.2 5.3 99 0.0 NNW 11 19 6 10 - - 17.2
25/06:30am 5.1 0.7 5.0 99 0.0 NNW 17 32 9 17 - - 16.8

Other formats

Comma delimited format used in spreadsheet applications
http://www.bom.gov.au/fwo/IDV60801/IDV60801.94859.axf

JavaScript Object Notation format (JSON) in row-major order
http://www.bom.gov.au/fwo/IDV60801/IDV60801.94859.json

Data quality

Most of these data are generated automatically and are frequently updated. Quality checks on data are not normally performed. It is possible for incorrect values to appear. Refer to information at About Latest Weather Observations and please check the disclaimer before using these data.